Time;durP1;ratioP1;P1;durP2;ratioP2;P2;SDS_P1;SDS_P2;PMS_P1;PMS_P2;Temp;Humidity;BMP_temperature;BMP_pressure;BME280_temperature;BME280_humidity;BME280_pressure;Samples;Min_cycle;Max_cycle;Signal;HPM_P1;HPM_P2
2022/01/12 00:01:11;;;;;;;26.63;12.63;;;0.10;99.90;;;;;;5017476;28;20193;-66
2022/01/12 00:03:37;;;;;;;24.57;12.30;;;0.10;99.90;;;;;;5018534;28;20656;-64
2022/01/12 00:06:03;;;;;;;24.43;11.17;;;0.00;99.90;;;;;;5019909;28;20871;-62
2022/01/12 00:08:31;;;;;;;19.93;10.80;;;0.00;99.90;;;;;;5017928;28;20200;-66
2022/01/12 00:10:58;;;;;;;21.00;10.47;;;0.00;99.90;;;;;;5018921;28;20173;-64
2022/01/12 00:13:24;;;;;;;19.13;10.23;;;0.00;99.90;;;;;;5018821;28;20203;-67
2022/01/12 00:15:50;;;;;;;23.83;11.40;;;-0.10;99.90;;;;;;5018860;28;20563;-66
2022/01/12 00:18:16;;;;;;;22.33;10.93;;;-0.10;99.90;;;;;;5023709;28;20649;-63
2022/01/12 00:20:42;;;;;;;22.63;11.20;;;-0.20;99.90;;;;;;5029857;28;20189;-63
2022/01/12 00:23:08;;;;;;;22.43;11.00;;;-0.30;99.90;;;;;;5028241;28;20706;-63
2022/01/12 00:25:56;;;;;;;19.97;10.73;;;-0.30;99.90;;;;;;5018612;28;20287;-63
2022/01/12 00:33:53;;;;;;;18.57;9.87;;;-0.30;99.90;;;;;;5018524;28;20773;-64
2022/01/12 00:36:20;;;;;;;21.00;10.73;;;-0.30;99.90;;;;;;5018103;28;20218;-63
2022/01/12 00:38:47;;;;;;;23.53;11.57;;;-0.40;99.90;;;;;;5017141;28;20269;-63
2022/01/12 00:41:18;;;;;;;21.23;11.27;;;-0.40;99.90;;;;;;5021348;28;20242;-69
2022/01/12 00:43:47;;;;;;;22.80;12.00;;;-0.40;99.90;;;;;;5019025;28;20609;-64
2022/01/12 00:46:16;;;;;;;23.47;10.40;;;-0.50;99.90;;;;;;5019736;28;20267;-64
2022/01/12 00:48:41;;;;;;;23.80;10.43;;;-0.50;99.90;;;;;;5020441;28;20312;-63
2022/01/12 00:51:10;;;;;;;21.87;12.00;;;-0.50;99.90;;;;;;5018075;28;20189;-64
2022/01/12 00:53:36;;;;;;;22.77;10.93;;;-0.50;99.90;;;;;;5018916;28;20538;-64
2022/01/12 00:56:02;;;;;;;22.83;11.47;;;-0.60;99.90;;;;;;5029186;28;20198;-69
2022/01/12 00:58:28;;;;;;;23.67;11.53;;;-0.60;99.90;;;;;;5029849;28;20363;-65
2022/01/12 01:00:53;;;;;;;22.33;10.63;;;-0.50;99.90;;;;;;5028033;28;20641;-67
2022/01/12 01:03:19;;;;;;;20.47;10.67;;;-0.60;99.90;;;;;;5028175;28;20192;-64
2022/01/12 01:05:45;;;;;;;20.67;10.63;;;-0.60;99.90;;;;;;5031772;28;20365;-64
2022/01/12 01:08:10;;;;;;;19.23;10.53;;;-0.50;99.90;;;;;;5025899;28;20197;-66
2022/01/12 01:10:46;;;;;;;23.93;11.43;;;-0.50;99.90;;;;;;5017157;28;20195;-64
2022/01/12 01:13:26;;;;;;;23.13;10.83;;;-0.60;99.90;;;;;;5029240;28;20202;-67
2022/01/12 01:16:01;;;;;;;22.43;11.73;;;-0.40;99.90;;;;;;5038507;28;20808;-64
2022/01/12 01:26:48;;;;;;;22.77;11.23;;;-0.70;99.90;;;;;;5022662;28;20236;-63
2022/01/12 01:29:14;;;;;;;22.80;10.77;;;-0.80;99.90;;;;;;5022586;28;20240;-64
2022/01/12 01:31:41;;;;;;;24.30;11.53;;;-0.80;99.90;;;;;;5022016;28;20634;-68
2022/01/12 01:34:12;;;;;;;19.10;10.07;;;-0.80;99.90;;;;;;5019039;28;20666;-63
2022/01/12 01:36:45;;;;;;;18.10;10.33;;;-0.80;99.90;;;;;;5021434;28;20846;-64
2022/01/12 01:39:14;;;;;;;17.00;9.97;;;-0.80;99.90;;;;;;5021111;28;20265;-64
2022/01/12 01:41:43;;;;;;;18.97;9.90;;;-0.80;99.90;;;;;;5019733;28;20203;-65
2022/01/12 01:54:51;;;;;;;19.13;8.73;;;-0.50;99.90;;;;;;5020564;28;20647;-67
2022/01/12 01:57:17;;;;;;;19.40;10.33;;;-0.60;99.90;;;;;;5020787;28;20190;-65
2022/01/12 01:59:42;;;;;;;21.50;10.33;;;-0.50;99.90;;;;;;5022345;28;20196;-63
2022/01/12 02:02:08;;;;;;;16.47;8.87;;;-0.50;99.90;;;;;;5022781;28;20201;-63
2022/01/12 02:04:34;;;;;;;19.70;9.80;;;-0.50;99.90;;;;;;5021784;28;20215;-67
2022/01/12 02:06:59;;;;;;;18.67;9.17;;;-0.60;99.90;;;;;;5023134;28;20699;-68
2022/01/12 02:09:26;;;;;;;15.10;8.90;;;-0.60;99.90;;;;;;5024265;28;20220;-66
2022/01/12 02:11:53;;;;;;;18.27;9.67;;;-0.40;99.90;;;;;;5023868;28;20199;-63
2022/01/12 02:14:19;;;;;;;18.40;9.17;;;-0.60;99.90;;;;;;5026997;28;20192;-66
2022/01/12 02:16:54;;;;;;;18.70;9.40;;;-0.70;99.90;;;;;;5019648;28;20200;-66
2022/01/12 02:35:55;;;;;;;17.20;9.13;;;-0.60;99.90;;;;;;5025051;28;20731;-66
2022/01/12 02:41:06;;;;;;;17.77;9.30;;;-0.60;99.90;;;;;;5023512;28;20196;-64
2022/01/12 02:53:49;;;;;;;17.13;9.10;;;-0.60;99.90;;;;;;5020061;28;20212;-67
2022/01/12 02:56:20;;;;;;;15.57;8.33;;;-0.60;99.90;;;;;;5019028;28;20203;-64
2022/01/12 02:58:48;;;;;;;15.67;8.57;;;-0.60;99.90;;;;;;5019913;28;20661;-70
2022/01/12 03:01:40;;;;;;;19.20;8.43;;;-0.60;99.90;;;;;;5019712;28;20676;-65
2022/01/12 03:04:09;;;;;;;16.63;9.37;;;-0.60;99.90;;;;;;5019805;28;20205;-63
2022/01/12 03:06:38;;;;;;;14.77;8.53;;;-0.50;99.90;;;;;;5018817;28;20316;-65
2022/01/12 03:09:05;;;;;;;16.00;8.77;;;-0.50;99.90;;;;;;5020556;28;20195;-64
2022/01/12 03:11:32;;;;;;;19.23;9.13;;;-0.70;99.90;;;;;;5021215;28;20273;-65
2022/01/12 03:13:58;;;;;;;15.90;8.40;;;-0.70;99.90;;;;;;5019888;28;20187;-64
2022/01/12 03:16:25;;;;;;;15.27;8.57;;;-0.60;99.90;;;;;;5021309;28;20200;-63
2022/01/12 03:18:54;;;;;;;23.40;9.40;;;-0.70;99.90;;;;;;5020091;28;20668;-66
2022/01/12 03:21:23;;;;;;;15.63;7.67;;;-0.70;99.90;;;;;;5023570;28;20183;-63
2022/01/12 03:23:50;;;;;;;14.57;7.90;;;-0.70;99.90;;;;;;5022825;28;20187;-67
2022/01/12 03:26:16;;;;;;;15.33;8.17;;;-0.60;99.90;;;;;;5019008;28;20240;-64
2022/01/12 03:28:43;;;;;;;18.40;9.20;;;-0.60;99.90;;;;;;5022013;28;20197;-64
2022/01/12 03:31:18;;;;;;;15.57;9.50;;;-0.60;99.90;;;;;;5016749;28;20190;-63
2022/01/12 03:38:55;;;;;;;14.83;7.83;;;-0.50;99.90;;;;;;5019078;28;20256;-65
2022/01/12 03:41:21;;;;;;;16.90;8.70;;;-0.60;99.90;;;;;;5020293;28;20183;-68
2022/01/12 03:43:48;;;;;;;16.17;8.37;;;-0.60;99.90;;;;;;5019348;28;20628;-67
2022/01/12 03:46:20;;;;;;;18.50;8.47;;;-0.70;99.90;;;;;;5019663;28;20835;-64
2022/01/12 03:48:46;;;;;;;13.37;8.40;;;-0.60;99.90;;;;;;5021426;28;20182;-65
2022/01/12 03:51:12;;;;;;;12.50;7.40;;;-0.60;99.90;;;;;;5023769;28;20540;-63
2022/01/12 03:53:37;;;;;;;13.70;8.33;;;-0.60;99.90;;;;;;5022767;28;20251;-63
2022/01/12 03:56:03;;;;;;;17.53;9.20;;;-0.60;99.90;;;;;;5024311;28;20307;-67
2022/01/12 03:58:29;;;;;;;18.20;9.37;;;-0.60;99.90;;;;;;5021768;28;20181;-64
2022/01/12 04:00:54;;;;;;;17.50;8.43;;;-0.70;99.90;;;;;;5020339;28;20594;-63
2022/01/12 04:03:20;;;;;;;17.73;9.07;;;-0.70;99.90;;;;;;5019149;28;20604;-63
2022/01/12 04:08:23;;;;;;;17.90;8.83;;;-0.50;99.90;;;;;;5018345;28;20254;-63
2022/01/12 04:10:53;;;;;;;16.40;9.50;;;-0.40;99.90;;;;;;5020562;28;20192;-65
2022/01/12 04:13:22;;;;;;;17.97;9.80;;;-0.40;99.90;;;;;;5021497;28;20193;-63
2022/01/12 04:15:50;;;;;;;16.73;8.57;;;-0.50;99.90;;;;;;5016411;28;20189;-64
2022/01/12 04:18:16;;;;;;;17.90;9.40;;;-0.50;99.90;;;;;;5018702;28;20661;-65
2022/01/12 04:20:45;;;;;;;21.10;10.53;;;-0.40;99.90;;;;;;5018050;28;20188;-64
2022/01/12 04:23:18;;;;;;;19.37;10.57;;;-0.50;99.90;;;;;;5019809;28;20542;-68
2022/01/12 04:25:52;;;;;;;18.27;9.93;;;-0.60;99.90;;;;;;5019791;28;20258;-65
2022/01/12 04:28:20;;;;;;;16.20;9.17;;;-0.50;99.90;;;;;;5015424;28;20193;-64
2022/01/12 04:30:48;;;;;;;22.80;9.83;;;-0.60;99.90;;;;;;5018301;28;20188;-65
2022/01/12 04:33:14;;;;;;;16.17;9.67;;;-0.50;99.90;;;;;;5019389;28;20237;-63
2022/01/12 04:35:51;;;;;;;20.10;9.43;;;-0.60;99.90;;;;;;5018841;28;20247;-62
2022/01/12 04:38:20;;;;;;;22.03;10.53;;;-0.60;99.90;;;;;;5018542;28;21180;-63
2022/01/12 04:40:46;;;;;;;20.30;9.90;;;-0.50;99.90;;;;;;5016320;28;20212;-63
2022/01/12 04:43:13;;;;;;;18.50;10.60;;;-0.50;99.90;;;;;;5017440;28;20634;-66
2022/01/12 04:45:57;;;;;;;20.30;9.63;;;-0.50;99.90;;;;;;5017403;28;20368;-63
2022/01/12 04:50:52;;;;;;;22.33;10.47;;;-0.40;99.90;;;;;;5017714;28;20185;-65
2022/01/12 04:53:19;;;;;;;18.63;9.97;;;-0.40;99.90;;;;;;5019262;28;20187;-69
2022/01/12 04:55:47;;;;;;;21.17;11.47;;;-0.40;99.90;;;;;;5022056;28;20273;-64
2022/01/12 04:58:14;;;;;;;21.90;10.83;;;-0.40;99.90;;;;;;5028488;28;24593;-65
2022/01/12 05:00:41;;;;;;;26.33;11.03;;;-0.50;99.90;;;;;;5020163;28;20273;-63
2022/01/12 05:13:58;;;;;;;22.17;12.10;;;-0.50;99.90;;;;;;5016913;28;20207;-63
2022/01/12 05:16:24;;;;;;;25.73;11.67;;;-0.60;99.90;;;;;;5018634;28;20185;-63
2022/01/12 05:18:52;;;;;;;28.50;12.93;;;-0.50;99.90;;;;;;5017334;28;20614;-66
2022/01/12 05:21:19;;;;;;;28.30;13.20;;;-0.60;99.90;;;;;;5016694;28;20185;-62
2022/01/12 05:23:45;;;;;;;19.93;11.17;;;-0.40;99.90;;;;;;5021036;28;20280;-64
2022/01/12 05:26:11;;;;;;;26.07;11.57;;;-0.50;99.90;;;;;;5017413;28;20631;-64
2022/01/12 05:28:38;;;;;;;27.53;12.90;;;-0.50;99.90;;;;;;5016054;28;20193;-64
2022/01/12 05:31:06;;;;;;;22.53;12.00;;;-0.40;99.90;;;;;;5020423;28;20203;-64
2022/01/12 05:33:32;;;;;;;27.67;12.53;;;-0.50;99.90;;;;;;5020686;28;20199;-63
2022/01/12 05:36:01;;;;;;;27.67;12.93;;;-0.60;99.90;;;;;;5023555;28;20237;-64
2022/01/12 05:38:26;;;;;;;33.47;13.37;;;-0.50;99.90;;;;;;5022013;28;20201;-66
2022/01/12 05:40:58;;;;;;;25.57;11.63;;;-0.40;99.90;;;;;;5022023;28;20545;-65
2022/01/12 05:43:27;;;;;;;22.83;11.90;;;-0.40;99.90;;;;;;5024281;28;20182;-65
2022/01/12 05:45:55;;;;;;;30.20;12.33;;;-0.40;99.90;;;;;;5024933;28;20208;-64
2022/01/12 05:50:49;;;;;;;22.50;11.63;;;-0.50;99.90;;;;;;5023505;28;20220;-66
2022/01/12 05:53:16;;;;;;;24.87;12.60;;;-0.50;99.90;;;;;;5018768;28;20180;-65
2022/01/12 05:55:42;;;;;;;27.77;13.07;;;-0.70;99.90;;;;;;5016705;28;20228;-66
2022/01/12 05:58:08;;;;;;;25.13;12.97;;;-0.60;99.90;;;;;;5013018;28;20199;-65
2022/01/12 06:00:34;;;;;;;27.37;11.83;;;-0.40;99.90;;;;;;5017168;28;20200;-64
2022/01/12 06:03:00;;;;;;;26.87;12.83;;;-0.50;99.90;;;;;;5023673;28;20185;-63
2022/01/12 06:05:28;;;;;;;25.67;13.03;;;-0.50;99.90;;;;;;5024248;28;20666;-63
2022/01/12 06:07:54;;;;;;;29.33;12.63;;;-0.50;99.90;;;;;;5021638;28;20223;-67
2022/01/12 06:10:23;;;;;;;22.03;12.77;;;-0.60;99.90;;;;;;5023210;28;20288;-63
2022/01/12 06:12:50;;;;;;;25.97;12.63;;;-0.50;99.90;;;;;;5021491;28;20234;-63
2022/01/12 06:15:16;;;;;;;25.90;12.33;;;-0.60;99.90;;;;;;5022691;28;20196;-65
2022/01/12 06:17:42;;;;;;;26.63;12.60;;;-0.50;99.90;;;;;;5020352;28;20647;-63
2022/01/12 06:20:08;;;;;;;26.33;12.47;;;-0.40;99.90;;;;;;5021162;28;20181;-63
2022/01/12 06:22:34;;;;;;;22.93;12.53;;;-0.40;99.90;;;;;;5022423;28;20182;-64
2022/01/12 06:25:02;;;;;;;27.37;12.33;;;-0.40;99.90;;;;;;5019574;28;20252;-64
2022/01/12 06:27:29;;;;;;;32.53;15.80;;;-0.40;99.90;;;;;;5021244;28;20236;-66
2022/01/12 06:31:10;;;;;;;31.63;15.27;;;-0.50;99.90;;;;;;5018295;28;20273;-66
2022/01/12 06:32:51;;;;;;;38.07;19.00;;;-0.40;99.90;;;;;;5021784;28;20185;-64
2022/01/12 06:35:16;;;;;;;28.17;14.63;;;-0.20;99.90;;;;;;5020223;28;20238;-64
2022/01/12 06:37:42;;;;;;;27.00;12.93;;;-0.50;99.90;;;;;;5019699;28;20271;-64
2022/01/12 06:40:08;;;;;;;27.27;13.37;;;-0.50;99.90;;;;;;5014539;28;20214;-63
2022/01/12 06:42:34;;;;;;;30.63;11.83;;;-0.40;99.90;;;;;;5015821;28;20197;-65
2022/01/12 06:45:00;;;;;;;26.90;12.53;;;-0.50;99.90;;;;;;5020974;28;20196;-64
2022/01/12 06:47:26;;;;;;;72.40;32.30;;;-0.50;99.90;;;;;;5020598;28;20212;-64
2022/01/12 06:49:51;;;;;;;28.50;13.70;;;-0.50;99.90;;;;;;5022271;28;20222;-65
2022/01/12 06:52:17;;;;;;;31.43;16.43;;;-0.50;99.90;;;;;;5017690;28;20283;-63
2022/01/12 06:54:43;;;;;;;27.70;13.73;;;-0.50;99.90;;;;;;5031953;28;20182;-63
2022/01/12 06:57:09;;;;;;;36.33;21.20;;;-0.50;99.90;;;;;;5017848;28;20202;-63
2022/01/12 06:59:34;;;;;;;29.27;13.70;;;-0.60;99.90;;;;;;5018894;28;20182;-63
2022/01/12 07:02:00;;;;;;;30.30;14.87;;;-0.50;99.90;;;;;;5021931;28;20200;-64
2022/01/12 07:04:26;;;;;;;28.43;12.57;;;-0.50;99.90;;;;;;5023556;28;21114;-64
2022/01/12 07:06:51;;;;;;;27.27;13.60;;;-0.60;99.90;;;;;;5023008;28;20718;-67
2022/01/12 07:09:17;;;;;;;28.13;13.57;;;-0.50;99.90;;;;;;5025002;28;20195;-64
2022/01/12 07:11:42;;;;;;;26.97;13.67;;;-0.50;99.90;;;;;;5028068;28;20178;-63
2022/01/12 07:14:08;;;;;;;26.63;13.43;;;-0.40;99.90;;;;;;5028217;28;20239;-66
2022/01/12 07:16:34;;;;;;;29.70;12.50;;;-0.30;99.90;;;;;;5028545;28;20197;-66
2022/01/12 07:19:00;;;;;;;28.33;13.87;;;-0.30;99.90;;;;;;5029329;28;20185;-66
2022/01/12 07:21:26;;;;;;;37.57;14.33;;;-0.30;99.90;;;;;;5023463;28;20185;-69
2022/01/12 07:23:54;;;;;;;29.03;14.00;;;-0.40;99.90;;;;;;5022782;28;20192;-64
2022/01/12 07:26:21;;;;;;;30.23;14.17;;;-0.40;99.90;;;;;;5023844;28;20208;-63
2022/01/12 07:28:47;;;;;;;26.00;12.90;;;-0.40;99.90;;;;;;5024096;28;20639;-64
2022/01/12 07:31:13;;;;;;;28.07;14.17;;;-0.50;99.90;;;;;;5019948;28;20192;-63
2022/01/12 07:33:39;;;;;;;30.57;14.90;;;-0.40;99.90;;;;;;5016492;28;20342;-63
2022/01/12 07:36:05;;;;;;;28.80;13.80;;;-0.30;99.90;;;;;;5018515;28;20271;-67
2022/01/12 07:38:30;;;;;;;29.10;14.17;;;-0.30;99.90;;;;;;5034225;28;20189;-63
2022/01/12 07:40:56;;;;;;;29.03;14.53;;;-0.30;99.90;;;;;;5017261;28;20248;-64
2022/01/12 07:43:22;;;;;;;30.57;13.80;;;-0.30;99.90;;;;;;5023300;28;20181;-64
2022/01/12 07:45:48;;;;;;;29.17;14.30;;;-0.20;99.90;;;;;;5020927;28;20213;-64
2022/01/12 07:48:13;;;;;;;27.70;14.43;;;-0.10;99.90;;;;;;5017301;28;20204;-63
2022/01/12 07:50:40;;;;;;;30.50;12.90;;;-0.10;99.90;;;;;;5016187;28;20215;-64
2022/01/12 07:53:05;;;;;;;28.80;13.23;;;-0.10;99.90;;;;;;5019909;28;20268;-64
2022/01/12 07:55:31;;;;;;;26.13;12.97;;;-0.10;99.90;;;;;;5021496;28;20268;-64
2022/01/12 07:57:58;;;;;;;27.77;14.73;;;-0.20;99.90;;;;;;5018235;28;20230;-70
2022/01/12 08:00:24;;;;;;;26.53;13.50;;;-0.20;99.90;;;;;;5016457;28;20200;-64
2022/01/12 08:02:50;;;;;;;28.73;14.40;;;-0.20;99.90;;;;;;5022856;28;20188;-65
2022/01/12 08:05:16;;;;;;;27.83;13.47;;;-0.10;99.90;;;;;;5017742;28;20181;-66
2022/01/12 08:07:42;;;;;;;35.53;15.53;;;-0.10;99.90;;;;;;5016586;28;20211;-63
2022/01/12 08:10:09;;;;;;;32.67;14.47;;;-0.10;99.90;;;;;;5016368;28;20196;-62
2022/01/12 08:12:36;;;;;;;27.53;13.47;;;-0.10;99.90;;;;;;5023329;28;20267;-64
2022/01/12 08:15:04;;;;;;;29.20;14.27;;;0.00;99.90;;;;;;5022814;28;20186;-69
2022/01/12 08:17:30;;;;;;;28.37;14.17;;;0.00;99.90;;;;;;5022065;28;20254;-64
2022/01/12 08:19:57;;;;;;;27.27;13.37;;;-0.10;99.90;;;;;;5017707;28;20193;-66
2022/01/12 08:22:23;;;;;;;24.97;12.90;;;-0.10;99.90;;;;;;5019742;28;20177;-64
2022/01/12 08:24:48;;;;;;;27.77;13.80;;;-0.10;99.90;;;;;;5017802;28;20192;-63
2022/01/12 08:27:15;;;;;;;29.27;13.63;;;-0.20;99.90;;;;;;5017639;28;20641;-63
2022/01/12 08:29:41;;;;;;;31.80;13.37;;;-0.10;99.90;;;;;;5020241;28;20193;-65
2022/01/12 08:32:08;;;;;;;26.80;12.97;;;-0.20;99.90;;;;;;5016812;28;20212;-68
2022/01/12 08:34:34;;;;;;;31.13;14.90;;;-0.10;99.90;;;;;;5015958;28;20212;-64
2022/01/12 08:37:00;;;;;;;27.77;13.30;;;-0.10;99.90;;;;;;5018919;28;20657;-66
2022/01/12 08:39:25;;;;;;;29.90;13.10;;;0.00;99.90;;;;;;5017067;28;20660;-64
2022/01/12 08:41:51;;;;;;;33.77;14.37;;;0.00;99.90;;;;;;5016070;28;20180;-67
2022/01/12 08:44:17;;;;;;;32.23;14.33;;;0.00;99.90;;;;;;5018263;28;20658;-65
2022/01/12 08:46:42;;;;;;;30.07;13.57;;;0.10;99.90;;;;;;5016315;28;20374;-63
2022/01/12 08:49:09;;;;;;;28.87;13.83;;;0.20;99.90;;;;;;5015081;28;20271;-66
2022/01/12 08:51:36;;;;;;;26.13;13.20;;;0.20;99.90;;;;;;5017919;28;20197;-70
2022/01/12 08:54:03;;;;;;;30.00;13.07;;;0.30;99.90;;;;;;5018868;28;20288;-65
2022/01/12 08:56:28;;;;;;;33.53;14.63;;;0.40;99.90;;;;;;5017224;28;20640;-64
2022/01/12 08:58:54;;;;;;;29.13;14.43;;;0.50;99.90;;;;;;5016263;28;20203;-66
2022/01/12 09:01:20;;;;;;;27.30;13.17;;;0.50;99.90;;;;;;5016486;28;20196;-67
2022/01/12 09:03:45;;;;;;;29.33;14.47;;;0.60;99.90;;;;;;5016896;28;20291;-70
2022/01/12 09:06:11;;;;;;;25.60;12.73;;;0.60;99.90;;;;;;5022602;28;20212;-64
2022/01/12 09:08:38;;;;;;;28.43;13.10;;;0.70;99.90;;;;;;5018924;28;20242;-64
2022/01/12 09:11:04;;;;;;;27.47;12.90;;;0.70;99.90;;;;;;5019343;28;20189;-67
2022/01/12 09:13:30;;;;;;;28.93;13.07;;;0.60;99.90;;;;;;5012964;28;20186;-62
2022/01/12 09:15:56;;;;;;;30.07;13.10;;;0.80;99.90;;;;;;5016788;28;20192;-65
2022/01/12 09:18:22;;;;;;;24.70;12.80;;;1.00;99.90;;;;;;5016431;28;20188;-63
2022/01/12 09:20:49;;;;;;;27.47;12.80;;;1.00;99.90;;;;;;5016383;28;22236;-67
2022/01/12 09:23:15;;;;;;;25.83;12.53;;;0.90;99.90;;;;;;5018120;28;20617;-64
2022/01/12 09:25:41;;;;;;;33.47;12.83;;;1.00;99.90;;;;;;5019795;28;20196;-63
2022/01/12 09:28:07;;;;;;;24.30;12.33;;;1.10;99.90;;;;;;5018231;28;20652;-68
2022/01/12 09:30:33;;;;;;;29.23;12.83;;;1.10;99.90;;;;;;5016968;28;20197;-64
2022/01/12 09:32:59;;;;;;;35.40;14.33;;;1.10;99.90;;;;;;5013394;28;20188;-69
2022/01/12 09:35:26;;;;;;;27.80;12.30;;;1.00;99.90;;;;;;5032535;28;20631;-68
2022/01/12 09:37:52;;;;;;;31.90;14.30;;;1.00;99.90;;;;;;5017906;28;20196;-70
2022/01/12 09:40:18;;;;;;;31.27;13.67;;;1.10;99.90;;;;;;5019303;28;20288;-63
2022/01/12 09:42:46;;;;;;;23.17;12.73;;;1.30;99.90;;;;;;5023011;28;20664;-64
2022/01/12 09:45:15;;;;;;;26.57;12.83;;;1.30;99.90;;;;;;5023985;28;20208;-65
2022/01/12 09:47:42;;;;;;;31.37;13.23;;;1.30;99.90;;;;;;5024995;28;20216;-64
2022/01/12 09:50:10;;;;;;;25.37;12.53;;;1.40;99.90;;;;;;5023980;28;20201;-66
2022/01/12 09:52:36;;;;;;;22.57;11.93;;;1.40;99.90;;;;;;5021003;28;20304;-64
2022/01/12 09:55:02;;;;;;;27.97;12.27;;;1.40;99.90;;;;;;5019812;28;20213;-63
2022/01/12 09:57:27;;;;;;;33.07;13.60;;;1.50;99.90;;;;;;5020147;28;20197;-64
2022/01/12 09:59:53;;;;;;;31.33;12.60;;;1.60;99.90;;;;;;5018542;28;20223;-63
2022/01/12 10:02:21;;;;;;;27.33;12.20;;;1.60;99.90;;;;;;5021347;28;20194;-63
2022/01/12 10:04:47;;;;;;;33.20;15.63;;;1.70;99.90;;;;;;5024044;28;20280;-63
2022/01/12 10:07:14;;;;;;;24.77;12.53;;;1.80;99.90;;;;;;5029483;28;20247;-64
2022/01/12 10:09:45;;;;;;;23.37;11.83;;;1.80;99.90;;;;;;5022309;28;20536;-64
2022/01/12 10:12:16;;;;;;;25.70;11.97;;;1.80;99.90;;;;;;5021037;28;20193;-63
2022/01/12 10:14:49;;;;;;;19.40;9.33;;;1.90;99.90;;;;;;5019217;28;20276;-62
2022/01/12 10:17:16;;;;;;;35.07;11.73;;;2.00;99.90;;;;;;5021423;28;20189;-62
2022/01/12 10:19:42;;;;;;;23.73;9.80;;;2.20;99.90;;;;;;5023989;28;20185;-65
2022/01/12 10:22:11;;;;;;;24.47;12.10;;;2.20;99.90;;;;;;5024981;28;20645;-65
2022/01/12 10:24:42;;;;;;;22.90;11.63;;;2.30;99.90;;;;;;5026089;28;20204;-63
2022/01/12 10:27:17;;;;;;;26.27;12.37;;;2.40;99.90;;;;;;5026962;28;20243;-63
2022/01/12 10:29:44;;;;;;;23.77;11.43;;;2.40;99.90;;;;;;5029347;28;20193;-63
2022/01/12 10:32:10;;;;;;;19.57;9.43;;;2.40;99.90;;;;;;5030730;28;20649;-63
2022/01/12 10:34:41;;;;;;;21.30;9.73;;;2.50;99.90;;;;;;5033662;28;20274;-63
2022/01/12 10:37:09;;;;;;;20.53;9.23;;;2.50;99.90;;;;;;5031485;28;20676;-69
2022/01/12 10:39:42;;;;;;;23.53;11.80;;;2.40;99.90;;;;;;5034375;28;20539;-64
2022/01/12 10:42:17;;;;;;;22.73;10.93;;;2.50;99.90;;;;;;5029820;28;20181;-62
2022/01/12 10:44:53;;;;;;;19.97;10.43;;;2.60;99.90;;;;;;5024025;28;20185;-64
2022/01/12 10:47:22;;;;;;;23.53;11.70;;;2.60;99.90;;;;;;5020568;28;20279;-63
2022/01/12 10:49:54;;;;;;;21.63;9.67;;;2.70;99.90;;;;;;5025125;28;20811;-62
2022/01/12 10:52:31;;;;;;;23.43;11.27;;;2.70;99.90;;;;;;5023586;28;20197;-63
2022/01/12 10:55:04;;;;;;;20.70;9.20;;;2.70;99.90;;;;;;5022364;28;20191;-62
2022/01/12 10:57:31;;;;;;;17.90;8.43;;;2.80;99.90;;;;;;5023040;28;20201;-63
2022/01/12 11:00:00;;;;;;;23.63;11.03;;;2.70;99.90;;;;;;5023662;28;20227;-64
2022/01/12 11:02:29;;;;;;;22.73;10.53;;;2.70;99.90;;;;;;5023912;28;20214;-69
2022/01/12 11:04:56;;;;;;;20.57;11.07;;;2.80;99.90;;;;;;5017328;28;20207;-64
2022/01/12 11:07:26;;;;;;;26.87;12.17;;;2.80;99.90;;;;;;5022349;28;20212;-64
2022/01/12 11:09:56;;;;;;;21.27;9.73;;;2.90;99.90;;;;;;5026048;28;20202;-62
2022/01/12 11:12:22;;;;;;;22.20;11.53;;;2.90;99.90;;;;;;5021612;28;20252;-62
2022/01/12 11:14:48;;;;;;;22.03;10.80;;;2.70;99.90;;;;;;5018832;28;20195;-68
2022/01/12 11:17:14;;;;;;;28.03;12.90;;;2.80;99.90;;;;;;5018671;28;20284;-63
2022/01/12 11:19:48;;;;;;;27.00;12.00;;;2.80;99.90;;;;;;5016246;28;20185;-63
2022/01/12 11:22:27;;;;;;;25.67;11.97;;;2.80;99.90;;;;;;5013034;28;20268;-65
2022/01/12 11:24:54;;;;;;;28.30;12.90;;;2.70;99.90;;;;;;5016959;28;20488;-63
2022/01/12 11:27:21;;;;;;;34.23;14.27;;;2.70;99.90;;;;;;5016350;28;20220;-66
2022/01/12 11:29:47;;;;;;;25.17;11.85;;;2.70;99.90;;;;;;5019566;28;20468;-68
2022/01/12 11:32:22;;;;;;;21.53;9.73;;;2.80;99.90;;;;;;5017289;28;20198;-64
2022/01/12 11:35:01;;;;;;;23.60;9.40;;;2.80;99.90;;;;;;5019252;28;20189;-70
2022/01/12 11:37:27;;;;;;;21.97;8.90;;;2.70;99.90;;;;;;5018945;28;20185;-64
2022/01/12 11:39:53;;;;;;;24.97;10.53;;;2.90;99.90;;;;;;5023748;28;20192;-64
2022/01/12 11:42:19;;;;;;;23.80;10.83;;;2.90;99.90;;;;;;5023673;28;20181;-65
2022/01/12 11:44:45;;;;;;;24.00;10.67;;;3.00;99.90;;;;;;5023684;28;20203;-67
2022/01/12 11:47:13;;;;;;;30.63;11.80;;;3.10;99.90;;;;;;5016295;28;20216;-68
2022/01/12 11:49:44;;;;;;;23.83;11.40;;;3.00;99.90;;;;;;5017533;28;20555;-68
2022/01/12 11:52:26;;;;;;;15.13;8.93;;;3.10;99.90;;;;;;5017909;28;20571;-64
2022/01/12 11:55:13;;;;;;;28.37;10.43;;;3.10;99.90;;;;;;5024295;28;20179;-67
2022/01/12 11:57:42;;;;;;;51.43;17.13;;;3.10;99.90;;;;;;5020515;28;20578;-65
2022/01/12 12:00:17;;;;;;;47.87;17.13;;;3.10;99.90;;;;;;5024349;28;20291;-65
2022/01/12 12:02:44;;;;;;;29.30;11.50;;;3.20;99.90;;;;;;5025487;28;20212;-67
2022/01/12 12:05:11;;;;;;;25.17;12.88;;;3.20;99.90;;;;;;5029945;28;20492;-68
2022/01/12 12:07:55;;;;;;;18.03;9.13;;;3.20;99.90;;;;;;5031309;28;20245;-66
2022/01/12 12:10:23;;;;;;;21.03;9.00;;;3.30;99.90;;;;;;5019023;28;20197;-62
2022/01/12 12:12:53;;;;;;;21.30;9.83;;;3.40;99.90;;;;;;5023321;28;20182;-64
2022/01/12 12:15:21;;;;;;;17.03;8.50;;;3.50;99.90;;;;;;5022456;28;20201;-64
2022/01/12 12:17:46;;;;;;;22.67;9.77;;;3.50;99.90;;;;;;5024430;28;20189;-63
2022/01/12 12:20:17;;;;;;;19.03;10.03;;;3.50;99.90;;;;;;5021629;28;20188;-64
2022/01/12 12:22:45;;;;;;;20.40;8.97;;;3.60;99.90;;;;;;5021521;28;20205;-64
2022/01/12 12:25:12;;;;;;;20.57;9.43;;;3.60;99.90;;;;;;5021450;28;20193;-66
2022/01/12 12:27:40;;;;;;;17.07;8.87;;;3.80;99.90;;;;;;5024272;28;20319;-65
2022/01/12 12:30:09;;;;;;;15.53;8.53;;;3.80;99.90;;;;;;5021935;28;20197;-65
2022/01/12 12:32:37;;;;;;;20.27;8.93;;;3.90;99.90;;;;;;5020020;28;20191;-66
2022/01/12 12:35:18;;;;;;;23.60;9.70;;;3.90;99.90;;;;;;5028834;28;20231;-65
2022/01/12 12:37:56;;;;;;;16.67;7.90;;;3.90;99.90;;;;;;5016732;28;20254;-64
2022/01/12 12:40:29;;;;;;;15.13;8.07;;;4.10;99.90;;;;;;5017572;28;20196;-66
2022/01/12 12:43:14;;;;;;;16.10;8.23;;;4.10;99.90;;;;;;5017025;28;20661;-69
2022/01/12 12:45:49;;;;;;;13.27;8.03;;;4.20;99.90;;;;;;5017936;28;20179;-65
2022/01/12 12:48:17;;;;;;;18.23;8.07;;;4.20;99.90;;;;;;5017605;28;20219;-66
2022/01/12 12:50:44;;;;;;;37.47;13.07;;;4.20;99.90;;;;;;5016464;28;20182;-65
2022/01/12 12:53:10;;;;;;;27.08;12.88;;;4.30;99.90;;;;;;5020182;28;20477;-65
2022/01/12 12:55:39;;;;;;;21.37;10.50;;;4.50;99.90;;;;;;5021211;28;20613;-65
2022/01/12 12:58:05;;;;;;;17.50;7.43;;;4.60;99.90;;;;;;5021578;28;20352;-64
2022/01/12 13:00:32;;;;;;;9.13;5.87;;;4.80;99.90;;;;;;5004733;28;20181;-68
2022/01/12 13:03:00;;;;;;;12.67;5.20;;;5.00;99.90;;;;;;5004772;28;20192;-65
2022/01/12 13:05:28;;;;;;;11.43;4.37;;;5.10;99.90;;;;;;5015802;28;20185;-65
2022/01/12 13:07:54;;;;;;;8.60;5.17;;;5.10;99.90;;;;;;5020613;28;20312;-64
2022/01/12 13:10:23;;;;;;;8.87;4.43;;;5.10;99.90;;;;;;5024049;28;20184;-62
2022/01/12 13:12:52;;;;;;;7.50;4.40;;;5.20;99.90;;;;;;5022136;28;20298;-63
2022/01/12 13:15:20;;;;;;;8.90;5.57;;;5.20;99.90;;;;;;5026634;28;20189;-64
2022/01/12 13:17:48;;;;;;;7.90;5.37;;;5.20;99.90;;;;;;5028387;28;20208;-66
2022/01/12 13:23:04;;;;;;;8.23;4.53;;;5.30;99.90;;;;;;5026304;28;20623;-63
2022/01/12 13:25:30;;;;;;;13.33;5.20;;;5.20;99.90;;;;;;5025748;28;20277;-62
2022/01/12 13:28:06;;;;;;;13.63;6.07;;;5.10;99.90;;;;;;5026593;28;20309;-64
2022/01/12 13:30:33;;;;;;;10.27;5.07;;;5.20;99.90;;;;;;5025654;28;20702;-64
2022/01/12 13:33:01;;;;;;;9.17;5.30;;;5.20;99.90;;;;;;5024885;28;20234;-64
2022/01/12 13:35:33;;;;;;;10.23;5.10;;;5.10;99.90;;;;;;5038873;28;20251;-63
2022/01/12 13:38:02;;;;;;;11.80;4.93;;;5.10;99.90;;;;;;5030419;28;20836;-63
2022/01/12 13:40:35;;;;;;;8.20;4.90;;;5.10;99.90;;;;;;5010111;28;20184;-63
2022/01/12 13:43:02;;;;;;;8.07;4.70;;;5.10;99.90;;;;;;5004876;28;20494;-69
2022/01/12 13:45:39;;;;;;;10.57;4.93;;;5.10;99.90;;;;;;5011438;28;20195;-65
2022/01/12 13:48:16;;;;;;;9.07;5.67;;;5.30;99.90;;;;;;5005128;28;20348;-64
2022/01/12 13:50:46;;;;;;;9.00;5.10;;;5.20;99.90;;;;;;5016925;28;21342;-65
2022/01/12 13:53:12;;;;;;;8.20;5.17;;;5.20;99.90;;;;;;5019827;28;20182;-65
2022/01/12 13:55:52;;;;;;;8.43;5.03;;;5.20;99.90;;;;;;5023866;28;20290;-63
2022/01/12 13:58:24;;;;;;;9.70;4.73;;;5.20;99.90;;;;;;5023592;28;20188;-63
2022/01/12 14:01:10;;;;;;;10.20;5.17;;;5.20;99.90;;;;;;5023322;28;20185;-69